Time;durP1;ratioP1;P1;durP2;ratioP2;P2;SDS_P1;SDS_P2;PMS_P1;PMS_P2;Temp;Humidity;BMP_temperature;BMP_pressure;BME280_temperature;BME280_humidity;BME280_pressure;Samples;Min_cycle;Max_cycle;Signal;HPM_P1;HPM_P2
2023/12/21 00:01:45;;;;;;;0.30;0.30;;;9.40;99.90;;;;;;5114191;27;20082;-76
2023/12/21 00:04:10;;;;;;;0.45;0.45;;;9.30;99.90;;;;;;5132935;27;20039;-75
2023/12/21 00:06:36;;;;;;;0.40;0.40;;;9.30;99.90;;;;;;5128231;27;20176;-73
2023/12/21 00:09:02;;;;;;;0.52;0.52;;;9.30;99.90;;;;;;5128060;27;20575;-74
2023/12/21 00:11:28;;;;;;;0.82;0.82;;;9.30;99.90;;;;;;5133135;27;20488;-74
2023/12/21 00:13:53;;;;;;;0.80;0.80;;;9.40;99.90;;;;;;5137189;27;20480;-77
2023/12/21 00:16:19;;;;;;;0.30;0.30;;;9.40;99.90;;;;;;5133407;27;20086;-74
2023/12/21 00:18:45;;;;;;;0.60;0.60;;;9.40;99.90;;;;;;5133830;27;20047;-76
2023/12/21 00:21:10;;;;;;;0.40;0.40;;;9.40;99.90;;;;;;5131464;27;20046;-77
2023/12/21 00:23:37;;;;;;;0.50;0.50;;;9.40;99.90;;;;;;5132316;27;20396;-76
2023/12/21 00:26:03;;;;;;;1.20;1.20;;;9.30;99.90;;;;;;5133787;27;20046;-76
2023/12/21 00:28:28;;;;;;;0.40;0.40;;;9.40;99.90;;;;;;5138496;27;20603;-75
2023/12/21 00:30:54;;;;;;;0.40;0.40;;;9.40;99.90;;;;;;5140529;27;20032;-76
2023/12/21 00:33:20;;;;;;;0.73;0.73;;;9.40;99.90;;;;;;5120080;27;20039;-76
2023/12/21 00:35:45;;;;;;;1.80;1.70;;;9.30;99.90;;;;;;5135848;27;20039;-75
2023/12/21 00:38:11;;;;;;;0.38;0.38;;;9.30;99.90;;;;;;5116433;27;20050;-78
2023/12/21 00:40:37;;;;;;;0.52;0.52;;;9.40;99.90;;;;;;5136220;27;20035;-75
2023/12/21 00:43:03;;;;;;;0.32;0.32;;;9.40;99.90;;;;;;5117243;27;20333;-79
2023/12/21 00:45:30;;;;;;;0.30;0.30;;;9.40;99.90;;;;;;5136440;27;20047;-76
2023/12/21 00:47:56;;;;;;;3.67;3.45;;;9.50;99.90;;;;;;5129377;27;20051;-74
2023/12/21 00:50:21;;;;;;;0.35;0.35;;;9.40;99.90;;;;;;5135231;27;20175;-77
2023/12/21 00:52:47;;;;;;;0.40;0.40;;;9.50;99.90;;;;;;5131155;27;20046;-75
2023/12/21 00:55:13;;;;;;;0.55;0.55;;;9.60;99.90;;;;;;5096168;27;20460;-78
2023/12/21 00:57:39;;;;;;;1.40;1.40;;;9.40;99.90;;;;;;5131604;27;20043;-75
2023/12/21 01:00:05;;;;;;;0.50;0.50;;;9.50;99.90;;;;;;5129281;27;20039;-77
2023/12/21 01:02:31;;;;;;;0.57;0.57;;;9.50;99.90;;;;;;5112818;27;20100;-76
2023/12/21 01:04:56;;;;;;;0.30;0.30;;;9.50;99.90;;;;;;5087378;27;20082;-77
2023/12/21 01:07:22;;;;;;;1.15;1.15;;;9.40;99.90;;;;;;5129047;27;20038;-76
2023/12/21 01:09:48;;;;;;;1.38;1.35;;;9.40;99.90;;;;;;5095275;27;20047;-76
2023/12/21 01:12:14;;;;;;;0.40;0.40;;;9.40;99.90;;;;;;5129585;27;20144;-76
2023/12/21 01:14:41;;;;;;;0.40;0.40;;;9.40;99.90;;;;;;5129140;27;20039;-75
2023/12/21 01:17:06;;;;;;;1.27;1.27;;;9.40;99.90;;;;;;5115426;27;20057;-76
2023/12/21 01:19:32;;;;;;;0.30;0.30;;;9.40;99.90;;;;;;5130506;27;20389;-78
2023/12/21 01:21:58;;;;;;;0.40;0.40;;;9.40;99.90;;;;;;5079294;27;20449;-77
2023/12/21 01:24:23;;;;;;;0.45;0.45;;;9.40;99.90;;;;;;5112057;27;20039;-75
2023/12/21 01:26:49;;;;;;;0.40;0.40;;;9.40;99.90;;;;;;5129995;27;20035;-76
2023/12/21 01:29:16;;;;;;;0.30;0.30;;;9.40;99.90;;;;;;5132009;27;20050;-76
2023/12/21 01:31:42;;;;;;;0.40;0.40;;;9.40;99.90;;;;;;5132826;27;20062;-74
2023/12/21 01:34:07;;;;;;;0.40;0.40;;;9.40;99.90;;;;;;5100597;27;20459;-74
2023/12/21 01:36:33;;;;;;;0.40;0.40;;;9.30;99.90;;;;;;5130676;27;20045;-75
2023/12/21 01:38:59;;;;;;;1.45;1.35;;;9.20;99.90;;;;;;5128111;27;20083;-75
2023/12/21 01:41:24;;;;;;;0.43;0.43;;;9.20;99.90;;;;;;5127970;27;20126;-78
2023/12/21 01:43:50;;;;;;;0.28;0.28;;;9.20;99.90;;;;;;5131547;27;20046;-77
2023/12/21 01:46:16;;;;;;;0.65;0.65;;;9.10;99.90;;;;;;5115003;27;20125;-76
2023/12/21 01:48:42;;;;;;;;;;;9.10;99.90;;;;;;5113978;27;20399;-75
2023/12/21 01:51:10;;;;;;;0.30;0.30;;;9.10;99.90;;;;;;5128820;27;19942;-77
2023/12/21 01:53:38;;;;;;;0.50;0.50;;;9.10;99.90;;;;;;5111676;27;20043;-74
2023/12/21 01:56:04;;;;;;;0.40;0.40;;;9.00;99.90;;;;;;5111802;27;20076;-74
2023/12/21 01:58:33;;;;;;;;;;;9.00;99.90;;;;;;5129481;27;20039;-75
2023/12/21 02:00:59;;;;;;;12.30;2.60;;;9.00;99.90;;;;;;5112671;27;19916;-77
2023/12/21 02:03:28;;;;;;;;;;;9.00;99.90;;;;;;5095717;27;20122;-75
2023/12/21 02:05:53;;;;;;;0.65;0.65;;;8.90;99.90;;;;;;5129044;27;19930;-75
2023/12/21 02:08:19;;;;;;;0.70;0.70;;;8.90;99.90;;;;;;5126795;27;20042;-76
2023/12/21 02:10:46;;;;;;;0.60;0.60;;;8.90;99.90;;;;;;5132561;27;20503;-77
2023/12/21 02:13:12;;;;;;;0.30;0.30;;;8.90;99.90;;;;;;5111077;27;20049;-76
2023/12/21 02:15:38;;;;;;;;;;;8.90;99.90;;;;;;5128841;27;20464;-75
2023/12/21 02:18:06;;;;;;;0.47;0.47;;;8.90;99.90;;;;;;5115431;27;19922;-77
2023/12/21 02:20:33;;;;;;;0.40;0.40;;;8.90;99.90;;;;;;5095389;27;20035;-78
2023/12/21 02:23:03;;;;;;;0.30;0.30;;;8.90;99.90;;;;;;5126813;27;20051;-75
2023/12/21 02:25:30;;;;;;;0.30;0.30;;;8.90;99.90;;;;;;5117899;27;20039;-76
2023/12/21 02:27:56;;;;;;;0.30;0.30;;;8.80;99.90;;;;;;5129104;27;20377;-76
2023/12/21 02:30:22;;;;;;;0.63;0.63;;;8.90;99.90;;;;;;5076688;27;20038;-77
2023/12/21 02:32:47;;;;;;;0.55;0.55;;;8.80;99.90;;;;;;5128508;27;20043;-76
2023/12/21 02:35:15;;;;;;;0.30;0.30;;;8.80;99.90;;;;;;5130584;27;20361;-77
2023/12/21 02:37:40;;;;;;;1.08;0.50;;;8.90;99.90;;;;;;5111191;27;20103;-75
2023/12/21 02:40:06;;;;;;;0.60;0.60;;;8.90;99.90;;;;;;5129999;27;20418;-75
2023/12/21 02:42:32;;;;;;;0.75;0.75;;;8.90;99.90;;;;;;5127069;27;20035;-77
2023/12/21 02:44:58;;;;;;;0.68;0.68;;;8.90;99.90;;;;;;5111690;27;20135;-76
2023/12/21 02:47:23;;;;;;;3.35;1.50;;;8.90;99.90;;;;;;5093899;27;20070;-77
2023/12/21 02:49:49;;;;;;;0.35;0.35;;;8.90;99.90;;;;;;5128641;27;20069;-75
2023/12/21 02:52:15;;;;;;;0.40;0.40;;;8.90;99.90;;;;;;5128253;27;20043;-76
2023/12/21 02:54:40;;;;;;;10.30;3.08;;;8.90;99.90;;;;;;5131212;27;20127;-76
2023/12/21 02:57:06;;;;;;;0.50;0.50;;;8.90;99.90;;;;;;5131246;27;20035;-77
2023/12/21 02:59:32;;;;;;;0.68;0.68;;;8.80;99.90;;;;;;5129733;27;20027;-75
2023/12/21 03:01:57;;;;;;;0.57;0.57;;;8.90;99.90;;;;;;5111815;27;20103;-79
2023/12/21 03:04:23;;;;;;;1.40;1.23;;;8.90;99.90;;;;;;5111567;27;20385;-74
2023/12/21 03:06:49;;;;;;;1.88;1.48;;;8.80;99.90;;;;;;5111943;27;20035;-76
2023/12/21 03:09:15;;;;;;;0.30;0.30;;;8.90;99.90;;;;;;5128086;27;20031;-76
2023/12/21 03:11:40;;;;;;;0.40;0.40;;;8.90;99.90;;;;;;5095717;27;20046;-77
2023/12/21 03:14:06;;;;;;;0.30;0.30;;;8.80;99.90;;;;;;5127708;27;20050;-78
2023/12/21 03:16:33;;;;;;;0.85;0.85;;;9.00;99.90;;;;;;5108875;27;20039;-75
2023/12/21 03:18:59;;;;;;;0.35;0.35;;;8.80;99.90;;;;;;5116676;27;20500;-77
2023/12/21 03:21:25;;;;;;;0.35;0.35;;;8.90;99.90;;;;;;5139078;27;20066;-76
2023/12/21 03:23:51;;;;;;;0.30;0.30;;;8.90;99.90;;;;;;5132393;27;20464;-76
2023/12/21 03:26:17;;;;;;;0.40;0.40;;;8.90;99.90;;;;;;5082363;27;20058;-75
2023/12/21 03:28:44;;;;;;;0.30;0.30;;;8.80;99.90;;;;;;5140539;27;20071;-76
2023/12/21 03:31:11;;;;;;;1.05;1.05;;;8.80;99.90;;;;;;5095017;27;20043;-77
2023/12/21 03:33:36;;;;;;;0.30;0.30;;;8.90;99.90;;;;;;5111900;27;20042;-76
2023/12/21 03:36:03;;;;;;;0.40;0.40;;;8.90;99.90;;;;;;5129438;27;20087;-76
2023/12/21 03:38:29;;;;;;;0.57;0.57;;;8.90;99.90;;;;;;5129832;27;20038;-75
2023/12/21 03:40:54;;;;;;;0.40;0.40;;;8.90;99.90;;;;;;5130434;27;20033;-76
2023/12/21 03:43:20;;;;;;;0.75;0.73;;;8.90;99.90;;;;;;5109905;27;20042;-75
2023/12/21 03:45:46;;;;;;;0.50;0.50;;;8.90;99.90;;;;;;5127778;27;20529;-75
2023/12/21 03:48:12;;;;;;;0.40;0.40;;;8.90;99.90;;;;;;5127996;28;20653;-74
2023/12/21 03:50:38;;;;;;;0.85;0.85;;;8.90;99.90;;;;;;5075492;27;20038;-75
2023/12/21 03:53:05;;;;;;;0.40;0.40;;;8.90;99.90;;;;;;5126647;28;20075;-76
2023/12/21 03:55:31;;;;;;;0.45;0.45;;;8.90;99.90;;;;;;5128011;27;20049;-76
2023/12/21 03:57:58;;;;;;;0.50;0.50;;;8.90;99.90;;;;;;5095805;28;20118;-75
2023/12/21 04:00:23;;;;;;;0.40;0.40;;;8.90;99.90;;;;;;5126236;27;20051;-75
2023/12/21 04:02:49;;;;;;;0.60;0.60;;;8.90;99.90;;;;;;5127709;27;20459;-78
2023/12/21 04:05:15;;;;;;;0.50;0.50;;;8.90;99.90;;;;;;5128682;27;20445;-76
2023/12/21 04:07:40;;;;;;;0.40;0.40;;;8.90;99.90;;;;;;5131060;27;20446;-76
2023/12/21 04:10:07;;;;;;;0.90;0.90;;;8.90;99.90;;;;;;5125290;27;20035;-75
2023/12/21 04:12:32;;;;;;;;;;;8.90;99.90;;;;;;5108697;28;20120;-76
2023/12/21 04:14:58;;;;;;;0.25;0.25;;;8.80;99.90;;;;;;5129214;27;19919;-75
2023/12/21 04:17:24;;;;;;;0.40;0.40;;;8.90;99.90;;;;;;5133669;27;20070;-76
2023/12/21 04:19:51;;;;;;;0.30;0.30;;;8.90;99.90;;;;;;5130854;27;20114;-75
2023/12/21 04:22:17;;;;;;;0.43;0.43;;;8.90;99.90;;;;;;5136401;27;20448;-76
2023/12/21 04:24:42;;;;;;;0.40;0.40;;;8.90;99.90;;;;;;5131825;27;20153;-76
2023/12/21 04:27:08;;;;;;;0.63;0.63;;;8.80;99.90;;;;;;5136808;27;20162;-75
2023/12/21 04:29:34;;;;;;;1.20;1.10;;;8.80;99.90;;;;;;5132481;27;20070;-76
2023/12/21 04:32:00;;;;;;;0.20;0.20;;;9.00;99.90;;;;;;5128724;27;20077;-74
2023/12/21 04:34:25;;;;;;;;;;;8.90;99.90;;;;;;5098954;27;20047;-75
2023/12/21 04:36:51;;;;;;;0.60;0.60;;;8.80;99.90;;;;;;5130719;27;19919;-77
2023/12/21 04:39:16;;;;;;;0.40;0.40;;;8.90;99.90;;;;;;5135079;27;20125;-77
2023/12/21 04:41:42;;;;;;;0.28;0.28;;;8.90;99.90;;;;;;5132358;27;20070;-76
2023/12/21 04:44:08;;;;;;;0.65;0.65;;;8.90;99.90;;;;;;5114692;27;20086;-74
2023/12/21 04:46:33;;;;;;;0.45;0.45;;;8.80;99.90;;;;;;5131220;27;20084;-74
2023/12/21 04:48:59;;;;;;;0.40;0.40;;;8.80;99.90;;;;;;5130524;27;20039;-75
2023/12/21 04:51:25;;;;;;;0.30;0.30;;;8.80;99.90;;;;;;5130707;27;20118;-74
2023/12/21 04:53:50;;;;;;;0.38;0.38;;;8.80;99.90;;;;;;5132792;27;20046;-77
2023/12/21 04:56:16;;;;;;;0.40;0.40;;;8.80;99.90;;;;;;5133438;27;20042;-76
2023/12/21 04:58:42;;;;;;;0.65;0.65;;;8.80;99.90;;;;;;5114522;27;20146;-76
2023/12/21 05:01:08;;;;;;;0.40;0.40;;;8.80;99.90;;;;;;5130784;27;20035;-75
2023/12/21 05:03:34;;;;;;;0.40;0.40;;;8.80;99.90;;;;;;5139364;27;20039;-74
2023/12/21 05:06:00;;;;;;;;;;;8.80;99.90;;;;;;5133603;27;20112;-76
2023/12/21 05:08:26;;;;;;;0.40;0.40;;;8.90;99.90;;;;;;5132085;27;20439;-75
2023/12/21 05:10:51;;;;;;;0.40;0.40;;;8.90;99.90;;;;;;5114916;27;20070;-76
2023/12/21 05:13:18;;;;;;;0.47;0.47;;;8.80;99.90;;;;;;5130736;27;20078;-75
2023/12/21 05:15:43;;;;;;;0.40;0.40;;;8.80;99.90;;;;;;5134819;27;20039;-76
2023/12/21 05:18:09;;;;;;;0.40;0.40;;;8.80;99.90;;;;;;5129686;27;20446;-74
2023/12/21 05:20:35;;;;;;;0.40;0.40;;;8.90;99.90;;;;;;5129122;27;20049;-75
2023/12/21 05:23:00;;;;;;;0.30;0.30;;;8.80;99.90;;;;;;5096455;27;20051;-75
2023/12/21 05:25:27;;;;;;;0.40;0.40;;;8.80;99.90;;;;;;5131922;27;20078;-76
2023/12/21 05:27:53;;;;;;;0.30;0.30;;;8.90;99.90;;;;;;5129499;27;20703;-76
2023/12/21 05:30:19;;;;;;;0.32;0.32;;;8.90;99.90;;;;;;5131232;27;20130;-74
2023/12/21 05:32:45;;;;;;;0.40;0.40;;;8.80;99.90;;;;;;5133814;27;20383;-76
2023/12/21 05:35:11;;;;;;;0.40;0.40;;;8.80;99.90;;;;;;5131121;27;20388;-75
2023/12/21 05:37:37;;;;;;;0.95;0.95;;;8.90;99.90;;;;;;5113244;27;20479;-76
2023/12/21 05:40:03;;;;;;;0.38;0.38;;;8.90;99.90;;;;;;5128772;27;20049;-74
2023/12/21 05:42:29;;;;;;;0.32;0.32;;;8.90;99.90;;;;;;5096264;27;20492;-75
2023/12/21 05:44:55;;;;;;;0.30;0.30;;;8.90;99.90;;;;;;5130930;27;20125;-75
2023/12/21 05:47:20;;;;;;;0.40;0.40;;;8.90;99.90;;;;;;5096581;27;20120;-74
2023/12/21 05:49:46;;;;;;;0.50;0.50;;;8.80;99.90;;;;;;5134809;27;20124;-76
2023/12/21 05:52:15;;;;;;;0.30;0.30;;;8.90;99.90;;;;;;5134790;27;20488;-74
2023/12/21 05:54:41;;;;;;;0.40;0.40;;;8.90;99.90;;;;;;5129458;27;20070;-75
2023/12/21 05:57:09;;;;;;;0.40;0.40;;;8.80;99.90;;;;;;5134321;27;20405;-76
2023/12/21 05:59:37;;;;;;;0.40;0.40;;;8.80;99.90;;;;;;5132223;27;20039;-77
2023/12/21 06:02:03;;;;;;;0.57;0.57;;;8.90;99.90;;;;;;5094670;27;20507;-76
2023/12/21 06:04:29;;;;;;;0.75;0.75;;;8.90;99.90;;;;;;5115893;27;20038;-77
2023/12/21 06:06:54;;;;;;;0.40;0.40;;;8.90;99.90;;;;;;5112252;27;20035;-78
2023/12/21 06:09:20;;;;;;;0.40;0.40;;;8.90;99.90;;;;;;5112823;27;20088;-77
2023/12/21 06:11:46;;;;;;;0.30;0.30;;;8.90;99.90;;;;;;5129379;27;20031;-77
2023/12/21 06:14:11;;;;;;;0.30;0.30;;;8.90;99.90;;;;;;5128862;27;20043;-76
2023/12/21 06:16:37;;;;;;;0.30;0.30;;;8.90;99.90;;;;;;5129142;27;20043;-76
2023/12/21 06:19:09;;;;;;;0.40;0.40;;;8.90;99.90;;;;;;5130041;27;20596;-75
2023/12/21 06:21:39;;;;;;;0.38;0.38;;;8.90;99.90;;;;;;5128169;27;20061;-76
2023/12/21 06:24:06;;;;;;;0.32;0.32;;;8.90;99.90;;;;;;5128397;27;20051;-76
2023/12/21 06:26:32;;;;;;;0.43;0.43;;;8.90;99.90;;;;;;5128273;27;20296;-76
2023/12/21 06:28:58;;;;;;;0.30;0.30;;;9.00;99.90;;;;;;5128912;27;20047;-74
2023/12/21 06:31:24;;;;;;;0.40;0.40;;;9.00;99.90;;;;;;5111698;27;20042;-74
2023/12/21 06:33:52;;;;;;;0.40;0.40;;;8.90;99.90;;;;;;5126767;27;20425;-76
2023/12/21 06:36:18;;;;;;;0.40;0.40;;;9.00;99.90;;;;;;5131342;27;20536;-76
2023/12/21 06:38:43;;;;;;;0.50;0.50;;;9.00;99.90;;;;;;5131152;27;20121;-79
2023/12/21 06:41:13;;;;;;;0.50;0.50;;;9.00;99.90;;;;;;5130866;27;20039;-74
2023/12/21 06:43:39;;;;;;;0.40;0.40;;;9.00;99.90;;;;;;5126326;27;20053;-73
2023/12/21 06:46:10;;;;;;;0.60;0.60;;;9.00;99.90;;;;;;5128165;27;20491;-73
2023/12/21 06:48:37;;;;;;;0.35;0.35;;;9.00;99.90;;;;;;5131660;27;20081;-75
2023/12/21 06:51:03;;;;;;;0.40;0.40;;;9.00;99.90;;;;;;5128725;27;20034;-75
2023/12/21 06:53:28;;;;;;;0.50;0.50;;;9.00;99.90;;;;;;5128003;27;20077;-76
2023/12/21 06:55:54;;;;;;;0.38;0.38;;;9.00;99.90;;;;;;5127549;27;20445;-77
2023/12/21 06:58:20;;;;;;;0.40;0.40;;;9.00;99.90;;;;;;5127493;27;20035;-76
2023/12/21 07:00:47;;;;;;;0.52;0.52;;;9.00;99.90;;;;;;5128924;27;20039;-76
2023/12/21 07:03:13;;;;;;;0.40;0.40;;;9.00;99.90;;;;;;5130161;27;20050;-77
2023/12/21 07:05:38;;;;;;;0.38;0.38;;;9.00;99.90;;;;;;5112038;27;20035;-76
2023/12/21 07:08:04;;;;;;;0.50;0.50;;;9.10;99.90;;;;;;5103613;27;20032;-76
2023/12/21 07:10:30;;;;;;;0.30;0.30;;;9.00;99.90;;;;;;5126618;27;20039;-77
2023/12/21 07:12:56;;;;;;;0.63;0.63;;;9.00;99.90;;;;;;5088541;27;20031;-77
2023/12/21 07:15:21;;;;;;;0.30;0.30;;;9.00;99.90;;;;;;5121594;27;20047;-79
2023/12/21 07:17:47;;;;;;;0.30;0.30;;;9.00;99.90;;;;;;5135502;27;20514;-76
2023/12/21 07:20:13;;;;;;;0.40;0.40;;;9.00;99.90;;;;;;5134160;27;20369;-78
2023/12/21 07:22:38;;;;;;;0.65;0.65;;;9.00;99.90;;;;;;5130871;27;20062;-77
2023/12/21 07:25:04;;;;;;;0.30;0.30;;;9.00;99.90;;;;;;5129872;27;20088;-77
2023/12/21 07:27:30;;;;;;;0.45;0.45;;;9.00;99.90;;;;;;5131313;27;20457;-75
2023/12/21 07:29:56;;;;;;;0.40;0.40;;;8.90;99.90;;;;;;5120165;27;20030;-79
2023/12/21 07:32:27;;;;;;;1.48;1.40;;;9.00;99.90;;;;;;5121239;28;20065;-79
2023/12/21 07:34:53;;;;;;;0.30;0.30;;;9.00;99.90;;;;;;5127199;28;20047;-79
2023/12/21 07:37:19;;;;;;;0.38;0.38;;;9.00;99.90;;;;;;5132243;27;20051;-78
2023/12/21 07:39:44;;;;;;;0.50;0.50;;;9.00;99.90;;;;;;5129472;27;20037;-79
2023/12/21 07:42:10;;;;;;;0.40;0.40;;;9.00;99.90;;;;;;5137722;27;20028;-78
2023/12/21 07:44:37;;;;;;;0.40;0.40;;;9.00;99.90;;;;;;5094655;28;20044;-78
2023/12/21 07:47:02;;;;;;;0.30;0.30;;;9.00;99.90;;;;;;5138643;27;20050;-77
2023/12/21 07:49:28;;;;;;;0.30;0.30;;;9.10;99.90;;;;;;5121771;27;20383;-78
2023/12/21 07:51:54;;;;;;;0.40;0.40;;;9.10;99.90;;;;;;5137054;27;20073;-79
2023/12/21 07:54:21;;;;;;;0.40;0.40;;;9.00;99.90;;;;;;5145708;27;20130;-80
2023/12/21 07:56:47;;;;;;;0.65;0.65;;;9.00;99.90;;;;;;5120346;27;20035;-77
2023/12/21 07:59:13;;;;;;;0.30;0.30;;;9.10;99.90;;;;;;5115280;27;20103;-76
2023/12/21 08:01:39;;;;;;;0.50;0.50;;;9.10;99.90;;;;;;5124884;27;20125;-78
2023/12/21 08:04:07;;;;;;;0.75;0.75;;;9.10;99.90;;;;;;5115839;27;20562;-77
2023/12/21 08:06:32;;;;;;;0.40;0.40;;;9.00;99.90;;;;;;5136512;27;20057;-80
2023/12/21 08:08:58;;;;;;;0.40;0.40;;;9.10;99.90;;;;;;5118527;27;20039;-78
2023/12/21 08:11:27;;;;;;;0.40;0.40;;;9.10;99.90;;;;;;5129736;27;20031;-76
2023/12/21 08:13:52;;;;;;;0.40;0.40;;;9.10;99.90;;;;;;5134786;27;20038;-77
2023/12/21 08:16:18;;;;;;;0.70;0.70;;;9.10;99.90;;;;;;5127097;27;20094;-77
2023/12/21 08:18:44;;;;;;;0.40;0.40;;;9.10;99.90;;;;;;5130327;27;20080;-79
2023/12/21 08:21:10;;;;;;;0.40;0.40;;;9.10;99.90;;;;;;5127762;27;20077;-76
2023/12/21 08:23:36;;;;;;;1.58;1.48;;;9.20;99.90;;;;;;5127415;27;20051;-79
2023/12/21 08:26:06;;;;;;;0.30;0.30;;;9.20;99.90;;;;;;5132085;27;20054;-77
2023/12/21 08:28:32;;;;;;;0.82;0.82;;;9.20;99.90;;;;;;5142436;27;20039;-78
2023/12/21 08:30:59;;;;;;;;;;;9.30;99.90;;;;;;5129755;27;20372;-76
2023/12/21 08:33:25;;;;;;;0.40;0.40;;;9.30;99.90;;;;;;5128317;27;19915;-80
2023/12/21 08:35:51;;;;;;;0.40;0.40;;;9.50;99.90;;;;;;5094029;27;20043;-77
2023/12/21 08:38:17;;;;;;;0.40;0.40;;;9.30;99.90;;;;;;5137623;27;20058;-77
2023/12/21 08:40:42;;;;;;;0.40;0.40;;;9.30;99.90;;;;;;5136663;27;20035;-78
2023/12/21 08:43:08;;;;;;;0.60;0.60;;;9.30;99.90;;;;;;5132823;27;20138;-79
2023/12/21 08:45:38;;;;;;;0.30;0.30;;;9.30;99.90;;;;;;5137780;27;20153;-77
2023/12/21 08:48:05;;;;;;;0.30;0.30;;;9.40;99.90;;;;;;5135774;27;20047;-79
2023/12/21 08:50:30;;;;;;;0.52;0.52;;;9.40;99.90;;;;;;5116988;27;20074;-79
2023/12/21 08:52:59;;;;;;;0.52;0.52;;;9.40;99.90;;;;;;5135056;27;20149;-76
2023/12/21 08:55:25;;;;;;;1.00;1.00;;;9.50;99.90;;;;;;5117652;27;20097;-78
2023/12/21 08:57:58;;;;;;;0.80;0.80;;;9.60;99.90;;;;;;5133811;27;20057;-79
2023/12/21 09:00:24;;;;;;;0.43;0.43;;;9.50;99.90;;;;;;5140114;27;20073;-77
2023/12/21 09:02:50;;;;;;;0.30;0.30;;;9.60;99.90;;;;;;5118948;27;20463;-78
2023/12/21 09:05:16;;;;;;;0.25;0.25;;;9.70;99.90;;;;;;5115991;27;20038;-78
2023/12/21 09:07:41;;;;;;;0.30;0.30;;;9.50;99.90;;;;;;5137293;27;20055;-78
2023/12/21 09:10:08;;;;;;;0.35;0.35;;;9.60;99.90;;;;;;5131817;27;20043;-79
2023/12/21 09:12:35;;;;;;;0.55;0.55;;;9.60;99.90;;;;;;5133359;27;20480;-79
2023/12/21 09:15:01;;;;;;;0.40;0.40;;;9.60;99.90;;;;;;5129758;27;20599;-79
2023/12/21 09:17:27;;;;;;;0.40;0.40;;;9.70;99.90;;;;;;5142322;27;20047;-78
2023/12/21 09:19:52;;;;;;;1.27;1.25;;;9.70;99.90;;;;;;5135523;27;20154;-77
2023/12/21 09:22:18;;;;;;;0.40;0.40;;;9.70;99.90;;;;;;5097265;27;20070;-78
2023/12/21 09:24:44;;;;;;;0.35;0.35;;;9.70;99.90;;;;;;5111256;27;20054;-77
2023/12/21 09:27:13;;;;;;;0.40;0.40;;;9.70;99.90;;;;;;5133092;27;20043;-76
2023/12/21 09:29:40;;;;;;;0.30;0.30;;;9.90;99.90;;;;;;5129961;27;20495;-78
2023/12/21 09:32:08;;;;;;;0.40;0.40;;;9.80;99.90;;;;;;5113606;27;20049;-76
2023/12/21 09:34:34;;;;;;;0.30;0.30;;;10.00;99.90;;;;;;5127838;27;20042;-79
2023/12/21 09:37:01;;;;;;;0.38;0.38;;;10.00;99.90;;;;;;5111905;27;20116;-78
2023/12/21 09:39:29;;;;;;;0.52;0.52;;;10.20;99.90;;;;;;5113738;27;20072;-77
2023/12/21 09:41:55;;;;;;;0.50;0.50;;;10.10;99.90;;;;;;5112968;27;20039;-79
2023/12/21 09:44:22;;;;;;;4.05;1.15;;;10.00;99.90;;;;;;5129412;27;20487;-77
2023/12/21 09:46:58;;;;;;;0.40;0.40;;;10.10;99.90;;;;;;5128080;27;20383;-79
2023/12/21 09:49:23;;;;;;;0.45;0.45;;;10.00;99.90;;;;;;5128932;27;20050;-77
2023/12/21 09:51:51;;;;;;;0.77;0.75;;;10.30;99.90;;;;;;5130541;27;20547;-77
2023/12/21 09:54:18;;;;;;;0.57;0.57;;;10.10;99.90;;;;;;5128334;27;20058;-78
2023/12/21 09:56:50;;;;;;;0.30;0.30;;;10.10;99.90;;;;;;5129264;27;20081;-78
2023/12/21 09:59:16;;;;;;;0.38;0.38;;;9.70;99.90;;;;;;5132303;27;20053;-77
2023/12/21 10:01:41;;;;;;;;;;;10.00;99.90;;;;;;5131927;27;20047;-79
2023/12/21 10:04:08;;;;;;;1.00;1.00;;;10.00;99.90;;;;;;5110895;27;19927;-77
2023/12/21 10:06:33;;;;;;;;;;;10.00;99.90;;;;;;5109183;27;20039;-78
2023/12/21 10:09:04;;;;;;;1.77;1.67;;;10.10;99.90;;;;;;5114123;27;19964;-78
2023/12/21 10:11:31;;;;;;;1.45;1.17;;;10.10;99.90;;;;;;5102923;27;20153;-77
2023/12/21 10:13:57;;;;;;;0.40;0.40;;;10.20;99.90;;;;;;5096997;27;20042;-78
2023/12/21 10:16:26;;;;;;;0.47;0.47;;;10.10;99.90;;;;;;5109478;27;20180;-77
2023/12/21 10:18:52;;;;;;;0.30;0.30;;;10.00;99.90;;;;;;5109968;27;20498;-79
2023/12/21 10:21:19;;;;;;;0.30;0.30;;;10.10;99.90;;;;;;5127073;27;20043;-76
2023/12/21 10:23:45;;;;;;;0.30;0.30;;;10.10;99.90;;;;;;5129178;27;20051;-76
2023/12/21 10:26:11;;;;;;;0.30;0.30;;;10.30;99.90;;;;;;5128476;27;20046;-76
2023/12/21 10:28:37;;;;;;;0.30;0.30;;;10.30;99.90;;;;;;5093780;27;20035;-77
2023/12/21 10:31:04;;;;;;;0.40;0.40;;;10.40;99.90;;;;;;5109712;27;20035;-80
2023/12/21 10:33:32;;;;;;;3.50;0.60;;;10.40;99.90;;;;;;5106358;27;20031;-75
2023/12/21 10:35:58;;;;;;;0.45;0.45;;;10.40;99.90;;;;;;5134400;27;20543;-75
2023/12/21 10:38:25;;;;;;;1.48;1.48;;;10.40;99.90;;;;;;5113255;27;20129;-78
2023/12/21 10:40:51;;;;;;;0.30;0.30;;;10.40;99.90;;;;;;5129237;27;20043;-78
2023/12/21 10:43:17;;;;;;;0.52;0.50;;;10.10;99.90;;;;;;5113381;27;20054;-76
2023/12/21 10:45:47;;;;;;;1.30;1.20;;;9.90;99.90;;;;;;5129746;27;20468;-78
2023/12/21 10:48:15;;;;;;;0.40;0.40;;;10.20;99.90;;;;;;5110363;27;20035;-77
2023/12/21 10:50:45;;;;;;;0.30;0.30;;;10.30;99.90;;;;;;5129543;27;20035;-78
2023/12/21 10:53:13;;;;;;;0.30;0.30;;;10.30;99.90;;;;;;5134096;27;20102;-78
2023/12/21 10:55:40;;;;;;;0.35;0.35;;;10.20;99.90;;;;;;5125080;27;20044;-78
2023/12/21 10:58:07;;;;;;;0.63;0.63;;;10.30;99.90;;;;;;5110711;27;20046;-78
2023/12/21 11:00:33;;;;;;;0.40;0.40;;;11.70;99.90;;;;;;5127950;27;20038;-76
2023/12/21 11:03:09;;;;;;;0.70;0.70;;;10.30;99.90;;;;;;5129853;27;20066;-77
2023/12/21 11:05:40;;;;;;;0.25;0.25;;;10.20;99.90;;;;;;5125933;27;20046;-77
2023/12/21 11:08:06;;;;;;;0.30;0.30;;;10.10;99.90;;;;;;5128371;27;20396;-76
2023/12/21 11:10:33;;;;;;;5.60;1.85;;;10.00;99.90;;;;;;5126008;27;20051;-77
2023/12/21 11:12:59;;;;;;;0.30;0.30;;;9.90;99.90;;;;;;5114686;27;20046;-77
2023/12/21 11:15:25;;;;;;;0.35;0.35;;;9.90;99.90;;;;;;5111588;27;20043;-76
2023/12/21 11:18:01;;;;;;;0.30;0.30;;;10.00;99.90;;;;;;5112175;27;20039;-79
2023/12/21 11:20:32;;;;;;;0.43;0.43;;;10.10;99.90;;;;;;5124206;27;20138;-77
2023/12/21 11:23:06;;;;;;;0.30;0.30;;;10.00;99.90;;;;;;5128162;27;20448;-76
2023/12/21 11:25:33;;;;;;;1.02;1.02;;;10.00;99.90;;;;;;5129440;27;20507;-78
2023/12/21 11:27:59;;;;;;;;;;;10.10;99.90;;;;;;5112448;28;20191;-77
2023/12/21 11:30:28;;;;;;;0.30;0.30;;;10.10;99.90;;;;;;5129185;27;19931;-77
2023/12/21 11:33:04;;;;;;;0.30;0.30;;;10.10;99.90;;;;;;5129030;27;20043;-77
2023/12/21 11:35:31;;;;;;;0.30;0.30;;;10.20;99.90;;;;;;5118969;28;20054;-77
2023/12/21 11:37:59;;;;;;;0.63;0.63;;;10.20;99.90;;;;;;5130724;27;20062;-76
2023/12/21 11:40:26;;;;;;;0.40;0.40;;;10.30;99.90;;;;;;5131623;27;20057;-79
2023/12/21 11:42:56;;;;;;;1.05;0.52;;;10.30;99.90;;;;;;5127995;27;20047;-76
2023/12/21 11:45:23;;;;;;;0.35;0.35;;;10.30;99.90;;;;;;5128456;27;20047;-79
2023/12/21 11:47:59;;;;;;;0.30;0.30;;;10.40;99.90;;;;;;5128543;27;20039;-78
2023/12/21 11:50:29;;;;;;;1.17;0.98;;;10.40;99.90;;;;;;5126810;27;20047;-79
2023/12/21 11:53:12;;;;;;;0.52;0.52;;;10.40;99.90;;;;;;5129956;27;20031;-78
2023/12/21 11:55:39;;;;;;;0.30;0.30;;;10.50;99.90;;;;;;5125471;27;20429;-77
2023/12/21 11:58:13;;;;;;;0.40;0.40;;;10.50;99.90;;;;;;5121532;27;20065;-78
2023/12/21 12:00:44;;;;;;;4.72;0.40;;;10.60;99.90;;;;;;5127882;27;20051;-78
2023/12/21 12:03:12;;;;;;;0.28;0.28;;;10.70;99.90;;;;;;5128434;27;20039;-77
2023/12/21 12:05:38;;;;;;;0.43;0.43;;;10.80;99.90;;;;;;5134915;27;20126;-80
2023/12/21 12:08:05;;;;;;;0.30;0.30;;;10.80;99.90;;;;;;5132555;27;20118;-77
2023/12/21 12:10:32;;;;;;;1.52;1.42;;;10.80;99.90;;;;;;5127075;27;20039;-77
2023/12/21 12:12:59;;;;;;;0.77;0.77;;;10.80;99.90;;;;;;5135177;27;20046;-78
2023/12/21 12:15:24;;;;;;;0.30;0.30;;;10.90;99.90;;;;;;5124663;27;20057;-76
2023/12/21 12:17:53;;;;;;;0.30;0.30;;;10.90;99.90;;;;;;5130465;27;20452;-78
2023/12/21 12:20:19;;;;;;;;;;;11.00;99.90;;;;;;5125757;27;20439;-78
2023/12/21 12:22:45;;;;;;;1.73;1.65;;;11.00;99.90;;;;;;5130719;27;20013;-78
2023/12/21 12:25:15;;;;;;;0.47;0.47;;;11.00;99.90;;;;;;5135349;27;20050;-77
2023/12/21 12:27:41;;;;;;;1.05;1.05;;;11.00;99.90;;;;;;5142291;27;20035;-79
2023/12/21 12:30:08;;;;;;;0.80;0.80;;;11.00;99.90;;;;;;5137636;27;20050;-79
2023/12/21 12:32:34;;;;;;;1.08;1.05;;;10.90;99.90;;;;;;5130733;27;20077;-81
2023/12/21 12:34:59;;;;;;;0.45;0.45;;;10.80;99.90;;;;;;5129677;27;20082;-78
2023/12/21 12:37:25;;;;;;;0.40;0.40;;;10.80;99.90;;;;;;5133751;27;20043;-77
2023/12/21 12:39:51;;;;;;;0.40;0.40;;;10.90;99.90;;;;;;5124701;27;20239;-76
2023/12/21 12:42:17;;;;;;;0.30;0.30;;;10.70;99.90;;;;;;5100436;27;20051;-79
2023/12/21 12:44:46;;;;;;;0.40;0.40;;;9.90;99.90;;;;;;5108564;27;20136;-78
2023/12/21 12:47:11;;;;;;;0.43;0.43;;;9.10;99.90;;;;;;5126967;27;20122;-80
2023/12/21 12:49:37;;;;;;;0.55;0.55;;;8.50;99.90;;;;;;5119963;27;20146;-82
2023/12/21 12:52:05;;;;;;;0.50;0.50;;;8.00;99.90;;;;;;5128512;27;20128;-78
2023/12/21 12:54:31;;;;;;;0.52;0.52;;;7.60;99.90;;;;;;5126226;27;20039;-77